Accueil
METAR-TAF:

METAR-TAF

Aéroports :

Aéroport international José-Martí

La Havane, Cuba

latitude: 22-59N, longitude: 082-24W, altitude: 59 m

Observation

Le bulletin a été fait il y a 23 minutes, à 23:55 UTC
Vent 5 kt de est/nord-est
Température 24°C
Humidité 89%
Pression 1015 hPa
Visibilité: 9000 m
Quelques nuages à une hauteur de 4000 ft

METAR: MUHA 112355Z 07005KT 9000 ///// FEW040 24/22 Q1015

Heure: 19:18 (00:18 UTC)

Prévision

Le bulletin a été fait il y a 1 heure et 18 minutes, à 23:00 UTC
Prévision valable du 12 à 00 UTC au 12 à 24 UTC
Vent 6 kt de est/nord-est
Visibilité: 9000 m
Nuages épars à une hauteur de 2000 ft
Evoluant progressivement
du 12 à 14 UTC au 12 à 16 UTC
Vent 10 kt de est

TAF: MUHA 112300Z 1200/1224 07006KT 9000 SCT020 BECMG 1214/1216 09010KT

Observations et prévisions météorologiques de plus de 4000 aéroports (messages METAR et TAF).

Les stations disponibles sont représentées par des disques jaunes et rouges sur la carte.

Passer la souris dessus pour voir le nom de la station.

Cliquer dessus pour voir les observations et prévisions météorologiques.

Pour changer de carte: cliquez sur les boutons verts avec une croix noire pour zoomer, sur le bouton vert avec un tiret pour effectuer un zoom arrière, ou sur les flèches vertes pour les cartes adjacentes.


METAR-TAF: